Frost, MN (56033)

6:32 AM CST on December 28, 2014 (GMT -0600)
Faribault County Law Enforcement Center | Change Station
CLOSE
Current Station
Personal Weather Station
Location: Blue Earth, MN
Elevation: 1079 ft
Nearby Weather Stations

Elev 1079 ft 43.65 °N, 94.10 °W | Updated 7 minutes ago

Clear
Clear
9.6 °F
Feels Like 10 °F
N
2.0
Wind Variable Wind from SW
Gusts 3.0 mph

Today
High -- | Low -- °F
--% Chance of Precip.
Yesterday
High -- | Low -- °F
Precip. -- in
7:48 AM 4:46 PM
Waxing Crescent, 47% visible
Pressure 30.08 in
Visibility 10.0 miles
Clouds Clear
Windchill 10 °F
Dew Point 7 °F
Humidity 89%
Rainfall 0.00 in
Snow Depth Not available.
UV 0 out of 12
Pollen .10 out of 12
Air Quality Not available.
Flu Activity Not available.
METAR KFRM 281215Z AUTO 25005KT 10SM CLR M12/M14 A3008 RMK AO1

More Conditions Fewer Conditions

Pressure 30.08 in
Visibility 10.0 miles
Clouds Clear
Windchill 10 °F
Dew Point 7 °F
Humidity 89%
Rainfall 0.00 in
Snow Depth Not available.
UV 0 out of 12
Pollen .10 out of 12
Air Quality Not available.
Flu Activity Not available.
METAR KFRM 281215Z AUTO 25005KT 10SM CLR M12/M14 A3008 RMK AO1

More Conditions Fewer Conditions

10-Day Weather Forecast

Almanac

Astronomy

Dec. 28, 2014 Rise Set
Actual Time
Civil Twilight
Nautical Twilight
Astronomical Twilight
Moon
Length of Visible Light
Length of Day
Tomorrow will be .
, % of the Moon is Illuminated

Today's Extremes

State Highs State Lows

Community

WunderPhotos

Upload Photos

1,781,243 photos uploaded!

WunderBlogs® & News

Nearby

Air Quality

  Air Quality AQ Index Pollutant
Not available.

Snow Depth

Station Depth Elevation

Earthquake Activity

City Distance Mag. Time & Date
Minimum magnitude displayed is 2.5.

Coastal Water Temperatures

Place Temperature

Nearby Weather Stations